MSC Lea — 9HA2639 — position and weather

sailwx.info

Track history (hours):
 
Tides and Currents Weather Stations Pressure Air Temp Water Temp Dewpoint Dewpoint Depression Visibility Wind Speed Wind Dir Waves Ship Positions

MSC Lea

Last reported at 2016-Jul-28 21:24 UTC. Time now 2016-Jul-28 22:19 UTC.
Position N 38°27' E 015°54'.

Length 217 m; draft 8.7 m.

Type: Ship (hazmat cat A). MMSI: 215101000.

Date/timePositionNaut miles runAvg speedWind from/ knotsBaromVisibWave heightAir tempDewpointWater temp
2016-Jul-28 21:24N 38°27' E 015°54'0 0.0
2016-Jul-28 20:31N 38°27' E 015°54'0 0.0
2016-Jul-28 19:32N 38°27' E 015°54'0 0.0
2016-Jul-28 18:32N 38°27' E 015°54'2 2.1
2016-Jul-28 17:33N 38°27' E 015°52'5 4.8
2016-Jul-28 16:33N 38°27' E 015°46'2 1.8
2016-Jul-28 15:33N 38°27' E 015°43'1 0.7
2016-Jul-28 14:33N 38°27' E 015°44'1 0.6
2016-Jul-28 13:33N 38°28' E 015°45'0 0.5
2016-Jul-28 12:33N 38°28' E 015°45'1 0.5
2016-Jul-28 11:33N 38°28' E 015°46'0 0.3
2016-Jul-28 10:33N 38°28' E 015°46'0 0.0
2016-Jul-28 09:33N 38°28' E 015°46'1 0.7
2016-Jul-28 08:33N 38°28' E 015°46'1212.2
2016-Jul-28 07:33N 38°16' E 015°42'1313.4
2016-Jul-28 06:34N 38°04' E 015°36'1211.6
2016-Jul-28 05:33N 37°52' E 015°39'1313.2
2016-Jul-28 04:33N 37°44' E 015°51'1514.7
2016-Jul-28 03:33N 37°40' E 016°09'1714.2
2016-Jul-28 02:23N 37°36' E 016°30'2814.3
2016-Jul-28 00:24N 37°28' E 017°04'1214.3
2016-Jul-27 23:33N 37°25' E 017°19'29312.6
2016-Jul-27 00:19N 36°56' E 023°25'1114.3
2016-Jul-26 23:33N 37°04' E 023°33'1413.5
2016-Jul-26 22:33N 37°15' E 023°45'1413.6
2016-Jul-26 21:34N 37°25' E 023°56'1413.3
2016-Jul-26 20:31N 37°35' E 024°07'1313.4
2016-Jul-26 19:34N 37°44' E 024°19'1413.6
2016-Jul-26 18:34N 37°53' E 024°32'68 1.4
2016-Jul-24 18:17N 37°31' E 025°53'349 7.2
2016-Jul-22 17:33N 34°39' E 032°09'  
Track history (hours):
 
Tides and Currents Weather Stations Pressure Air Temp Water Temp Dewpoint Dewpoint Depression Visibility Wind Speed Wind Dir Waves Ship Positions

MSC Lea

Last reported at 2016-Jul-28 21:24 UTC. Time now 2016-Jul-28 22:19 UTC.
Position N 38°27' E 015°54'.

Length 217 m; draft 8.7 m.

Type: Ship (hazmat cat A). MMSI: 215101000.

Date/timePositionNaut miles runAvg speedWind from/ knotsBaromVisibWave heightAir tempDewpointWater temp
2016-Jul-28 21:24N 38°27' E 015°54'0 0.0
2016-Jul-28 20:31N 38°27' E 015°54'0 0.0
2016-Jul-28 19:32N 38°27' E 015°54'0 0.0
2016-Jul-28 18:32N 38°27' E 015°54'2 2.1
2016-Jul-28 17:33N 38°27' E 015°52'5 4.8
2016-Jul-28 16:33N 38°27' E 015°46'2 1.8
2016-Jul-28 15:33N 38°27' E 015°43'1 0.7
2016-Jul-28 14:33N 38°27' E 015°44'1 0.6
2016-Jul-28 13:33N 38°28' E 015°45'0 0.5
2016-Jul-28 12:33N 38°28' E 015°45'1 0.5
2016-Jul-28 11:33N 38°28' E 015°46'0 0.3
2016-Jul-28 10:33N 38°28' E 015°46'0 0.0
2016-Jul-28 09:33N 38°28' E 015°46'1 0.7
2016-Jul-28 08:33N 38°28' E 015°46'1212.2
2016-Jul-28 07:33N 38°16' E 015°42'1313.4
2016-Jul-28 06:34N 38°04' E 015°36'1211.6
2016-Jul-28 05:33N 37°52' E 015°39'1313.2
2016-Jul-28 04:33N 37°44' E 015°51'1514.7
2016-Jul-28 03:33N 37°40' E 016°09'1714.2
2016-Jul-28 02:23N 37°36' E 016°30'2814.3
2016-Jul-28 00:24N 37°28' E 017°04'1214.3
2016-Jul-27 23:33N 37°25' E 017°19'29312.6
2016-Jul-27 00:19N 36°56' E 023°25'1114.3
2016-Jul-26 23:33N 37°04' E 023°33'1413.5
2016-Jul-26 22:33N 37°15' E 023°45'1413.6
2016-Jul-26 21:34N 37°25' E 023°56'1413.3
2016-Jul-26 20:31N 37°35' E 024°07'1313.4
2016-Jul-26 19:34N 37°44' E 024°19'1413.6
2016-Jul-26 18:34N 37°53' E 024°32'68 1.4
2016-Jul-24 18:17N 37°31' E 025°53'349 7.2
2016-Jul-22 17:33N 34°39' E 032°09'  

Dump ship's entire track history